RV Helmer Hanssen — LAHV — position and weather

sailwx.info

Track history (hours):
 
Tides and Currents Weather Stations Pressure Air Temp Water Temp Dewpoint Dewpoint Depression Visibility Wind Speed Wind Dir Waves Ship Positions

Oceanographic research ship RV Helmer Hanssen (Norway)

ex Jan Mayen.

Ship's website: http://uit.no/bfe

Detailed information on ship capabilities available from University of Delaware's Ocean Information Center and ARCUS's ALIAS (Arctic Logistics Information and Support) project.

Last reported at 2017-Apr-29 03:00 UTC. Time now 2017-Apr-29 05:52 UTC.
Position N 67°48' E 010°12'.

Length 64 m; beam 13 m.

Type: Cargo ship. MMSI: 257471500.

Wind from 120 at 17 knots

Barometer 1027.9 mb
Air temperature 4.7 ° C
Dewpoint -4.3 ° C
Water temperature 7.0 ° C

Date/timePositionNaut miles runAvg speedWind from/ knotsBaromVisibWave heightAir tempDewpointWater temp
2017-Apr-29 03:00N 67°48' E 010°12'15 4.9 120 / 171027.9 4.7-4.3 7.0
2017-Apr-29 00:00N 67°54' E 009°36'8 2.5 130 / 161027.737.8 1.0 4.9-1.7 6.7
2017-Apr-28 21:00N 67°48' E 009°48'12 4.0 140 / 121027.537.8 1.0 5.2-2.4 6.7
2017-Apr-28 18:00N 68°00' E 009°48'12 4.1 150 / 81026.7 5.4-2.8 7.8
2017-Apr-28 15:00N 67°48' E 009°42'15 5.0 140 / 101026.037.8 1.0 5.9-3.8 6.9
2017-Apr-28 12:00N 68°00' E 010°06'19 6.3 140 / 81025.537.8 1.0 6.0-2.3 6.9
2017-Apr-28 09:00N 67°54' E 010°54'19 6.4 150 / 61024.737.8 1.0 5.4-3.7 6.1
2017-Apr-28 06:00N 67°48' E 011°42'11 3.6 140 / 81023.3 0.5 5.0-3.5 5.9
2017-Apr-28 03:00N 67°42' E 012°06'723.7 120 / 81021.6 4.0-4.3 5.7
2017-Apr-28 02:42N 67°48' E 012°17'210.8
2017-Apr-28 02:30N 67°48' E 012°23'511.0
2017-Apr-28 02:00N 67°48' E 012°37'611.9
2017-Apr-28 01:30N 67°49' E 012°53'611.8
2017-Apr-28 01:00N 67°51' E 013°07'611.2
2017-Apr-28 00:30N 67°54' E 013°20'611.0
2017-Apr-28 00:00N 67°57' E 013°33'3302.2
2017-Apr-28 00:00N 67°54' E 013°30'815.9 020 / 61020.0 3.3-2.3 4.8
2017-Apr-27 23:30N 67°59' E 013°45'511.0
2017-Apr-27 23:00N 68°02' E 013°58'510.9
2017-Apr-27 22:30N 68°05' E 014°10'510.6
2017-Apr-27 21:59N 68°08' E 014°23'510.4
2017-Apr-27 21:30N 68°12' E 014°32'3 5.0
2017-Apr-27 21:00N 68°14' E 014°33'2511.6
2017-Apr-27 21:00N 68°12' E 014°30'2 4.7 340 / 61019.0 1.8-7.8 4.8
2017-Apr-27 20:30N 68°14' E 014°33'0 0.0
2017-Apr-27 20:00N 68°14' E 014°33'0 0.0
2017-Apr-27 19:30N 68°14' E 014°33'0 0.0
2017-Apr-27 19:00N 68°14' E 014°33'0 0.0
2017-Apr-27 18:30N 68°14' E 014°33'0 0.0
2017-Apr-27 18:00N 68°14' E 014°33'2513.1
2017-Apr-27 18:00N 68°12' E 014°30'2 4.5 350 / 41017.2 3.7-8.5 4.9
2017-Apr-27 17:29N 68°14' E 014°33'0 0.0
2017-Apr-27 17:00N 68°14' E 014°33'0 0.0
2017-Apr-27 16:30N 68°14' E 014°33'0 0.0
2017-Apr-27 15:59N 68°14' E 014°33'0 0.0
2017-Apr-27 15:30N 68°14' E 014°33'0 0.0
2017-Apr-27 15:00N 68°14' E 014°33'2511.6
2017-Apr-27 15:00N 68°12' E 014°30'2 2.3 340 / 41015.3 6.0-9.2 4.9
2017-Apr-27 14:00N 68°14' E 014°33'0 0.0
2017-Apr-27 13:30N 68°14' E 014°33'0 0.0
2017-Apr-27 12:59N 68°14' E 014°33'0 0.0
2017-Apr-27 12:30N 68°14' E 014°33'0 0.0
2017-Apr-27 12:00N 68°14' E 014°33'2148.8
2017-Apr-27 12:00N 68°12' E 014°30'2 4.7 020 / 41013.3 5.2-8.1 5.1
2017-Apr-27 11:30N 68°14' E 014°33'0 0.0
2017-Apr-27 11:00N 68°14' E 014°33'0 0.0
2017-Apr-27 10:30N 68°14' E 014°33'0 0.0
2017-Apr-27 10:00N 68°14' E 014°33'0 0.0
2017-Apr-27 09:29N 68°14' E 014°33'2 4.6
2017-Apr-27 09:00N 68°12' E 014°30'21368.1 360 / 81011.7 3.8-7.6 4.7
2017-Apr-27 08:59N 68°14' E 014°33'0 0.0
2017-Apr-27 08:31N 68°14' E 014°33'0 0.1
2017-Apr-27 08:00N 68°14' E 014°33'2 3.5
2017-Apr-27 07:30N 68°12' E 014°33'1 2.4
2017-Apr-27 07:00N 68°11' E 014°34'2 4.1
2017-Apr-27 06:30N 68°09' E 014°31'3 6.2
2017-Apr-27 06:00N 68°08' E 014°24'21179.4
2017-Apr-27 06:00N 68°06' E 014°24'1 2.3 040 / 121009.8 0.5 2.2-6.6 4.0
2017-Apr-27 05:30N 68°06' E 014°21'2 4.4
2017-Apr-27 05:00N 68°04' E 014°24'2 3.8
2017-Apr-27 04:30N 68°03' E 014°26'3 6.4
2017-Apr-27 04:00N 67°60' E 014°30'0 0.7
2017-Apr-27 03:29N 67°60' E 014°31'3 5.7
2017-Apr-27 03:00N 67°57' E 014°34'3772.6
2017-Apr-27 03:00N 67°54' E 014°30'3 6.1 050 / 161007.7 0.5 2.2-4.0 4.6
2017-Apr-27 02:29N 67°55' E 014°38'0 0.9
2017-Apr-27 02:00N 67°55' E 014°38'0 0.4
2017-Apr-27 01:30N 67°54' E 014°38'1 1.7
2017-Apr-27 01:00N 67°54' E 014°36'0 0.5
2017-Apr-27 00:30N 67°54' E 014°37'0 0.5
2017-Apr-27 00:00N 67°54' E 014°38'1569.0
2017-Apr-27 00:00N 67°54' E 014°36'1 1.7 040 / 101006.5 2.7-3.3 5.1
2017-Apr-26 23:29N 67°54' E 014°38'0 0.4
2017-Apr-26 23:00N 67°54' E 014°38'0 0.3
2017-Apr-26 22:30N 67°54' E 014°39'0 0.2
2017-Apr-26 22:00N 67°55' E 014°39'2 4.5
2017-Apr-26 21:30N 67°56' E 014°43'4 7.6
2017-Apr-26 21:00N 67°59' E 014°51'5375.1
2017-Apr-26 21:00N 67°54' E 014°48'816.6 030 / 121006.2 3.2-4.3 4.8
2017-Apr-26 20:30N 68°01' E 014°59'4 7.7
2017-Apr-26 20:00N 68°04' E 015°06'4 7.6
2017-Apr-26 19:30N 68°06' E 015°14'4 7.6
2017-Apr-26 19:00N 68°09' E 015°22'3 5.4
2017-Apr-26 18:30N 68°10' E 015°28'4 7.4
2017-Apr-26 18:00N 68°12' E 015°36'090.2
2017-Apr-26 18:00N 68°12' E 015°36'4 7.9 020 / 101006.0 3.7-5.3 4.2
2017-Apr-26 17:30N 68°14' E 015°45'4 7.4
2017-Apr-26 17:00N 68°16' E 015°54'4 7.2
2017-Apr-26 16:30N 68°16' E 016°03'4 7.2
2017-Apr-26 16:00N 68°13' E 016°09'4 8.6
2017-Apr-26 15:30N 68°09' E 016°11'1 1.7
2017-Apr-26 15:00N 68°08' E 016°11'31776.4
2017-Apr-26 15:00N 68°06' E 016°06'2 4.1 350 / 101005.6 4.0-5.0 4.6
2017-Apr-26 14:29N 68°06' E 016°11'0 0.1
2017-Apr-26 13:30N 68°06' E 016°12'1 1.8
2017-Apr-26 13:00N 68°07' E 016°11'510.5
2017-Apr-26 12:30N 68°12' E 016°10'510.1
2017-Apr-26 12:00N 68°16' E 016°02'4326.6
2017-Apr-26 12:00N 68°12' E 016°00'510.7 040 / 101005.7 3.7-6.8 4.5
2017-Apr-26 11:30N 68°15' E 015°48'510.3
2017-Apr-26 11:00N 68°13' E 015°36'510.3
2017-Apr-26 10:30N 68°12' E 015°22'510.4
2017-Apr-26 10:00N 68°10' E 015°09'510.9
2017-Apr-26 09:30N 68°09' E 014°55'510.7
2017-Apr-26 09:00N 68°07' E 014°41'2317.3
2017-Apr-26 09:00N 68°06' E 014°36'3 6.4 060 / 141006.3 2.2-5.5 4.1
2017-Apr-26 08:30N 68°06' E 014°28'1 2.8
2017-Apr-26 08:00N 68°06' E 014°24'2 3.6
2017-Apr-26 07:30N 68°06' E 014°28'1 2.9
2017-Apr-26 06:59N 68°07' E 014°31'0 0.5
2017-Apr-26 06:30N 68°07' E 014°31'3 5.7
2017-Apr-26 06:00N 68°06' E 014°24'65340.6
2017-Apr-26 06:00N 68°00' E 014°24'611.7 060 / 141007.1 0.5 1.8-5.3 3.9
2017-Apr-26 05:30N 68°06' E 014°22'0 0.1
2017-Apr-26 05:00N 68°06' E 014°22'4 7.7
2017-Apr-26 04:30N 68°07' E 014°12'3 5.1
2017-Apr-26 04:00N 68°09' E 014°08'0 0.3
2017-Apr-26 03:30N 68°09' E 014°08'0 0.2
2017-Apr-26 03:00N 68°09' E 014°08'3457.8
2017-Apr-26 03:00N 68°06' E 014°06'3 6.9 030 / 21007.5 1.5-5.1 4.2
2017-Apr-26 02:30N 68°09' E 014°08'0 0.2
2017-Apr-26 02:00N 68°09' E 014°08'0 0.2
2017-Apr-26 01:30N 68°09' E 014°08'0 0.3
2017-Apr-26 00:59N 68°09' E 014°08'0 0.3
2017-Apr-26 00:29N 68°09' E 014°08'0 1.0
2017-Apr-26 00:00N 68°10' E 014°08'4259.8
2017-Apr-26 00:00N 68°06' E 014°06'4 7.9 030 / 41008.1 2.2-6.3 4.4
2017-Apr-25 23:30N 68°10' E 014°08'0 0.2
2017-Apr-25 23:00N 68°10' E 014°08'0 0.1
2017-Apr-25 22:30N 68°10' E 014°08'0 0.1
2017-Apr-25 22:00N 68°10' E 014°08'0 0.1
2017-Apr-25 21:30N 68°10' E 014°08'0 0.1
2017-Apr-25 21:00N 68°09' E 014°08'42129.2
2017-Apr-25 21:00N 68°06' E 014°06'4 7.1 360 / 81008.8 2.7-6.0 4.4
2017-Apr-25 20:30N 68°09' E 014°08'0 0.6
2017-Apr-25 19:59N 68°09' E 014°09'0 0.4
2017-Apr-25 19:30N 68°09' E 014°08'0 0.5
2017-Apr-25 19:00N 68°09' E 014°08'0 0.3
2017-Apr-25 18:30N 68°09' E 014°07'0 0.2
2017-Apr-25 18:00N 68°09' E 014°08'3345.1
2017-Apr-25 18:00N 68°06' E 014°06'4 7.3 020 / 81009.3 4.7-6.0 4.7
2017-Apr-25 17:30N 68°10' E 014°07'1 1.3
2017-Apr-25 17:00N 68°09' E 014°08'0 0.6
2017-Apr-25 16:30N 68°09' E 014°08'0 0.4
2017-Apr-25 16:00N 68°09' E 014°08'0 0.0
2017-Apr-25 15:30N 68°09' E 014°08'0 0.2
2017-Apr-25 15:00N 68°09' E 014°08'3352.8
2017-Apr-25 15:00N 68°06' E 014°06'4 7.2 100 / 61009.6 3.5-6.0 4.6
2017-Apr-25 14:30N 68°09' E 014°08'1 1.4
2017-Apr-25 13:30N 68°11' E 014°08'2 3.0
2017-Apr-25 13:00N 68°09' E 014°08'0 0.0
2017-Apr-25 12:30N 68°09' E 014°08'0 0.6
2017-Apr-25 12:00N 68°10' E 014°08'42198.2
2017-Apr-25 12:00N 68°06' E 014°06'4 8.0 100 / 81009.7 2.7-4.5 4.4
2017-Apr-25 11:30N 68°10' E 014°08'0 0.1
2017-Apr-25 10:59N 68°10' E 014°08'0 0.4
2017-Apr-25 10:30N 68°10' E 014°08'0 0.3
2017-Apr-25 10:00N 68°10' E 014°08'0 0.1
2017-Apr-25 09:30N 68°10' E 014°08'0 0.1
2017-Apr-25 09:00N 68°09' E 014°08'0 0.1
2017-Apr-25 08:30N 68°09' E 014°08'0 0.1
2017-Apr-25 08:00N 68°09' E 014°08'2 3.4
2017-Apr-25 07:31N 68°11' E 014°09'2 3.1
2017-Apr-25 07:00N 68°10' E 014°09'0 0.8
2017-Apr-25 06:30N 68°09' E 014°08'0 0.2
2017-Apr-25 06:00N 68°09' E 014°08'42562.9
2017-Apr-25 06:00N 68°06' E 014°06'4 7.3 360 / 41009.7 0.5 1.8-4.8 4.3
2017-Apr-25 05:30N 68°09' E 014°09'0 0.5
2017-Apr-25 05:00N 68°10' E 014°08'2 3.4
2017-Apr-25 04:30N 68°08' E 014°07'5 9.9
2017-Apr-25 04:00N 68°10' E 014°19'611.0
2017-Apr-25 03:30N 68°12' E 014°33'4 7.6
2017-Apr-25 03:00N 68°14' E 014°42'0 0.2
2017-Apr-25 02:30N 68°14' E 014°42'0 0.4
2017-Apr-25 02:00N 68°14' E 014°42'0 0.6
2017-Apr-25 01:30N 68°14' E 014°42'0 0.4
2017-Apr-25 01:00N 68°14' E 014°42'0 0.9
2017-Apr-25 00:29N 68°14' E 014°41'0 0.1
2017-Apr-25 00:00N 68°14' E 014°41'0 0.6
2017-Apr-24 23:30N 68°14' E 014°42'0 0.5
2017-Apr-24 23:00N 68°14' E 014°42'1 1.5
2017-Apr-24 22:30N 68°14' E 014°41'0 0.6
2017-Apr-24 22:00N 68°14' E 014°41'0 0.6
2017-Apr-24 21:30N 68°14' E 014°42'0 0.5
2017-Apr-24 21:00N 68°14' E 014°42'0 0.9
2017-Apr-24 20:30N 68°14' E 014°41'0 0.3
2017-Apr-24 20:00N 68°14' E 014°41'0 0.5
2017-Apr-24 19:30N 68°14' E 014°42'0 0.4
2017-Apr-24 19:00N 68°15' E 014°42'0 0.6
2017-Apr-24 18:30N 68°14' E 014°42'0 0.3
2017-Apr-24 18:00N 68°14' E 014°42'0 0.4
2017-Apr-24 17:30N 68°14' E 014°42'0 0.2
2017-Apr-24 17:00N 68°14' E 014°42'0 0.2
2017-Apr-24 16:30N 68°14' E 014°42'0 0.3
2017-Apr-24 16:00N 68°14' E 014°42'1 1.7
2017-Apr-24 15:30N 68°14' E 014°40'1 1.7
2017-Apr-24 15:00N 68°14' E 014°42'0 0.4
2017-Apr-24 14:30N 68°14' E 014°42'9 9.2
2017-Apr-24 13:30N 68°08' E 014°25'510.5
2017-Apr-24 13:00N 68°04' E 014°14'510.3
2017-Apr-24 12:29N 68°01' E 014°04'510.2
2017-Apr-24 12:00N 67°58' E 013°54'510.6
2017-Apr-24 11:29N 67°54' E 013°43'4 7.7
2017-Apr-24 11:00N 67°52' E 013°35'4 8.7
2017-Apr-24 10:30N 67°56' E 013°29'3 6.3
2017-Apr-24 10:00N 67°58' E 013°25'1 2.0
2017-Apr-24 09:29N 67°59' E 013°25'511.0
2017-Apr-24 09:00N 67°55' E 013°33'2369.2
2017-Apr-24 09:00N 67°54' E 013°30'611.4 070 / 141005.6 2.6-4.3 4.7
2017-Apr-24 08:30N 67°50' E 013°41'2 4.6
2017-Apr-24 08:00N 67°49' E 013°45'0 0.3
2017-Apr-24 07:30N 67°48' E 013°45'0 0.3
2017-Apr-24 07:00N 67°48' E 013°46'0 0.4
2017-Apr-24 06:30N 67°48' E 013°46'0 0.8
2017-Apr-24 06:00N 67°48' E 013°47'2123.9
2017-Apr-24 06:00N 67°48' E 013°42'715.2 100 / 81004.7 0.5 2.7-5.3 4.8
2017-Apr-24 05:30N 67°52' E 013°59'611.1
2017-Apr-24 05:00N 67°55' E 014°11'611.1
2017-Apr-24 04:30N 67°58' E 014°23'3 6.1
2017-Apr-24 03:59N 67°60' E 014°30'0 0.4
2017-Apr-24 03:30N 67°60' E 014°30'2 3.1
2017-Apr-24 03:00N 68°01' E 014°34'21207.6
2017-Apr-24 03:00N 68°00' E 014°30'714.7 070 / 121003.8 1.6-4.8 4.1
2017-Apr-24 02:29N 68°03' E 014°48'3 7.0
2017-Apr-24 02:00N 68°04' E 014°57'1 2.7
2017-Apr-24 01:30N 68°05' E 014°60'611.3
2017-Apr-24 01:00N 68°08' E 015°13'611.2
2017-Apr-24 00:30N 68°11' E 015°25'611.3
2017-Apr-24 00:00N 68°14' E 015°38'2223.1
2017-Apr-24 00:00N 68°12' E 015°36'612.4 060 / 161004.1 1.1-4.8 3.8
2017-Apr-23 23:30N 68°18' E 015°42'2 4.8
2017-Apr-23 23:00N 68°16' E 015°46'0 0.7
2017-Apr-23 22:30N 68°16' E 015°46'0 0.7
2017-Apr-23 22:00N 68°16' E 015°47'0 0.8
2017-Apr-23 21:30N 68°16' E 015°46'0 0.6
2017-Apr-23 21:00N 68°16' E 015°47'43214.1
2017-Apr-23 21:00N 68°12' E 015°42'5 9.7 060 / 161003.3 2.1-4.1 3.8
2017-Apr-23 20:30N 68°16' E 015°48'2 4.2
2017-Apr-23 20:00N 68°15' E 015°52'3 5.4
2017-Apr-23 19:30N 68°17' E 015°55'4 8.2
2017-Apr-23 19:00N 68°21' E 015°59'1 2.9
2017-Apr-23 18:30N 68°22' E 016°03'4 8.8
2017-Apr-23 18:00N 68°23' E 016°14'51295.7
2017-Apr-23 18:00N 68°18' E 016°12'510.3 060 / 161003.2 2.2-3.8 4.1
2017-Apr-23 17:30N 68°23' E 016°14'0 0.1
2017-Apr-23 17:00N 68°23' E 016°14'0 0.5
2017-Apr-23 16:30N 68°23' E 016°15'0 0.3
2017-Apr-23 16:00N 68°23' E 016°15'0 0.7
2017-Apr-23 15:30N 68°23' E 016°14'4 8.9
2017-Apr-23 15:00N 68°21' E 016°04'3500.2
2017-Apr-23 15:00N 68°18' E 016°00'0 0.1 080 / 211001.7 3.3-5.3 3.9
2017-Apr-23 13:59N 68°18' E 015°60'0 0.7
2017-Apr-23 13:30N 68°18' E 015°59'0 0.6
2017-Apr-23 13:00N 68°18' E 015°60'0 0.5
2017-Apr-23 12:30N 68°18' E 016°00'3 6.4
2017-Apr-23 12:00N 68°16' E 016°06'4957.0
2017-Apr-23 12:00N 68°12' E 016°06'3 7.1 190 / 21000.7 4.4-8.0 3.9
2017-Apr-23 11:30N 68°15' E 016°06'3 5.4
2017-Apr-23 11:00N 68°13' E 016°09'2 3.1
2017-Apr-23 10:30N 68°11' E 016°11'510.2
2017-Apr-23 10:00N 68°06' E 016°11'0 0.6
2017-Apr-23 09:30N 68°06' E 016°11'3 6.5
2017-Apr-23 09:00N 68°03' E 016°06'4602.4
2017-Apr-23 09:00N 68°00' E 016°00'4 8.7 130 / 12999.2 3.0-7.1 3.7
2017-Apr-23 08:30N 68°02' E 016°11'1 2.3
2017-Apr-23 08:00N 68°01' E 016°12'2 3.7
2017-Apr-23 07:29N 67°59' E 016°14'1 2.1
2017-Apr-23 07:00N 67°58' E 016°15'0 0.5
2017-Apr-23 06:30N 67°58' E 016°15'0 0.6
2017-Apr-23 06:00N 67°58' E 016°15'4598.4
2017-Apr-23 06:00N 67°54' E 016°12'4 8.0 120 / 25997.7 5.4 0.5 2.1-5.8 4.1
2017-Apr-23 05:30N 67°58' E 016°15'1 1.4
2017-Apr-23 04:59N 67°58' E 016°15'0 0.9
2017-Apr-23 04:30N 67°58' E 016°15'0 0.9
2017-Apr-23 04:00N 67°58' E 016°15'0 0.1
2017-Apr-23 03:30N 67°58' E 016°15'1 1.5
2017-Apr-23 03:00N 67°58' E 016°14'43049.1
2017-Apr-23 03:00N 67°54' E 016°12'4 8.5 120 / 23996.0 2.1-5.0 4.2
2017-Apr-23 02:29N 67°58' E 016°15'0 0.5
2017-Apr-23 02:00N 67°58' E 016°15'0 0.3
2017-Apr-23 01:30N 67°58' E 016°15'0 0.4
2017-Apr-23 01:00N 67°58' E 016°15'1 1.2
2017-Apr-23 00:30N 67°58' E 016°16'0 0.2
2017-Apr-23 00:00N 67°58' E 016°15'4341.3
2017-Apr-23 00:00N 67°54' E 016°12'4 8.2 200 / 8995.6 1.1-2.9 4.1
2017-Apr-22 23:30N 67°58' E 016°15'0 0.3
2017-Apr-22 23:00N 67°58' E 016°15'0 0.5
2017-Apr-22 22:30N 67°58' E 016°15'0 0.4
2017-Apr-22 22:00N 67°58' E 016°15'0 0.2
2017-Apr-22 21:30N 67°58' E 016°15'0 0.6
2017-Apr-22 21:00N 67°58' E 016°15'4956.6
2017-Apr-22 21:00N 67°54' E 016°12'4 8.8 210 / 19994.7 0.5-1.4 4.1
2017-Apr-22 20:30N 67°58' E 016°15'0 0.3
2017-Apr-22 19:59N 67°58' E 016°15'0 0.6
2017-Apr-22 19:30N 67°58' E 016°15'0 0.3
2017-Apr-22 19:00N 67°58' E 016°15'0 0.3
2017-Apr-22 18:30N 67°57' E 016°15'0 0.4
2017-Apr-22 18:00N 67°58' E 016°15'4571.6
2017-Apr-22 18:00N 67°54' E 016°12'4 8.3 170 / 16994.2 3.8-5.5 4.2
2017-Apr-22 17:29N 67°58' E 016°15'0 0.2
2017-Apr-22 17:00N 67°58' E 016°15'0 0.4
2017-Apr-22 16:30N 67°58' E 016°15'0 0.6
2017-Apr-22 16:00N 67°57' E 016°15'1 1.0
2017-Apr-22 15:29N 67°57' E 016°15'0 0.9
2017-Apr-22 15:00N 67°57' E 016°15'4514.3
2017-Apr-22 15:00N 67°54' E 016°12'4 8.0 190 / 25994.6 2.8-4.6 4.4
2017-Apr-22 14:30N 67°58' E 016°15'0 0.3
2017-Apr-22 13:30N 67°57' E 016°15'0 0.4
2017-Apr-22 12:59N 67°58' E 016°15'0 1.0
2017-Apr-22 12:30N 67°58' E 016°15'0 0.2
2017-Apr-22 12:00N 67°58' E 016°15'4324.6
2017-Apr-22 12:00N 67°54' E 016°12'4 8.0 180 / 19997.1 2.2-5.0 4.2
2017-Apr-22 11:30N 67°58' E 016°15'0 0.4
2017-Apr-22 11:00N 67°58' E 016°16'0 0.4
2017-Apr-22 10:30N 67°58' E 016°15'0 0.3
2017-Apr-22 10:00N 67°58' E 016°15'0 0.3
2017-Apr-22 09:30N 67°58' E 016°15'0 0.8
2017-Apr-22 09:00N 67°58' E 016°15'4274.8
2017-Apr-22 09:00N 67°54' E 016°12'4 7.3 140 / 4999.2 1.5-4.3 4.2
2017-Apr-22 08:29N 67°58' E 016°15'0 0.5
2017-Apr-22 08:00N 67°58' E 016°14'1 2.0
2017-Apr-22 07:30N 67°59' E 016°14'1 1.1
2017-Apr-22 07:00N 67°58' E 016°14'1 1.7
2017-Apr-22 06:29N 67°57' E 016°15'1 1.3
2017-Apr-22 06:00N 67°58' E 016°15'42955.1
2017-Apr-22 06:00N 67°54' E 016°12'3 7.2 270 / 17999.229.7 0.5 1.1-3.7 4.3
2017-Apr-22 05:30N 67°57' E 016°15'0 0.8
2017-Apr-22 05:00N 67°58' E 016°15'2 3.4
2017-Apr-22 04:29N 67°56' E 016°14'2 4.3
2017-Apr-22 04:00N 67°54' E 016°14'6 6.0
2017-Apr-22 03:00N 67°48' E 016°18'4 4.0 290 / 17998.6 2.2 0.5 1.6-5.1 4.5
2017-Apr-22 01:58N 67°49' E 016°28'0 0.5
2017-Apr-22 01:27N 67°49' E 016°28'0 0.1
2017-Apr-22 00:42N 67°50' E 016°28'0 1.9
2017-Apr-22 00:28N 67°49' E 016°29'2 4.7
2017-Apr-22 00:00N 67°48' E 016°24'247.2 300 / 19996.7 2.2 0.5 1.5-1.4 4.9
2017-Apr-21 23:57N 67°49' E 016°28'0 0.1
2017-Apr-21 23:06N 67°49' E 016°28'0 0.6
2017-Apr-21 23:00N 67°49' E 016°28'6 5.4
2017-Apr-21 21:51N 67°54' E 016°16'2 5.3
2017-Apr-21 21:29N 67°55' E 016°14'2 3.1
2017-Apr-21 21:00N 67°54' E 016°12'53136.2 320 / 10994.5 1.6-1.0 4.1
2017-Apr-21 20:59N 67°59' E 016°13'4 8.1
2017-Apr-21 20:30N 68°03' E 016°08'4 8.0
2017-Apr-21 20:00N 68°07' E 016°10'4 8.8
2017-Apr-21 19:30N 68°11' E 016°11'5 9.9
2017-Apr-21 18:59N 68°16' E 016°05'510.1
2017-Apr-21 18:30N 68°20' E 015°60'611.0
2017-Apr-21 18:00N 68°26' E 016°03'21724.0
2017-Apr-21 18:00N 68°24' E 016°00'815.8 010 / 17991.7 4.4-2.3 3.8
2017-Apr-21 17:30N 68°31' E 016°10'510.9
2017-Apr-21 17:00N 68°34' E 016°22'5 9.2
2017-Apr-21 16:30N 68°36' E 016°33'611.7
2017-Apr-21 16:00N 68°41' E 016°40'611.6
2017-Apr-21 15:30N 68°46' E 016°49'611.5
2017-Apr-21 15:00N 68°51' E 016°57'611.5
2017-Apr-21 14:29N 68°56' E 017°06'1111.4
2017-Apr-21 13:30N 69°05' E 017°25'611.6
2017-Apr-21 13:00N 69°08' E 017°40'611.6
2017-Apr-21 12:30N 69°10' E 017°54'4 7.7
2017-Apr-21 12:00N 69°14' E 017°57'2130.6
2017-Apr-21 12:00N 69°12' E 017°54'714.3 010 / 14986.6 4.7-8.4 3.7
2017-Apr-21 11:30N 69°19' E 017°58'5 9.0
2017-Apr-21 11:00N 69°23' E 018°05'611.1
2017-Apr-21 10:30N 69°28' E 018°08'611.6
2017-Apr-21 10:00N 69°31' E 018°22'611.8
2017-Apr-21 09:30N 69°33' E 018°38'611.9
2017-Apr-21 09:00N 69°36' E 018°53'2970.6
2017-Apr-21 09:00N 69°36' E 018°48'510.0 190 985.3 3.6-7.5 3.8
2017-Apr-21 08:30N 69°39' E 018°58'0 0.2
2017-Apr-21 08:00N 69°39' E 018°58'0 0.0
2017-Apr-21 07:30N 69°39' E 018°58'0 0.0
2017-Apr-21 07:00N 69°39' E 018°58'0 0.0
2017-Apr-21 06:30N 69°39' E 018°58'0 0.0
2017-Apr-21 06:00N 69°39' E 018°58'4247.8
2017-Apr-21 06:00N 69°36' E 018°54'4 7.7 030 / 2984.5 3.6-6.3 4.8
2017-Apr-21 05:30N 69°39' E 018°58'0 0.0
2017-Apr-21 05:00N 69°39' E 018°58'0 0.0
2017-Apr-21 04:29N 69°39' E 018°58'0 0.0
2017-Apr-21 03:59N 69°39' E 018°58'0 0.0
2017-Apr-21 03:29N 69°39' E 018°58'0 0.0
2017-Apr-21 03:00N 69°39' E 018°58'4389.4
2017-Apr-21 03:00N 69°36' E 018°54'4 7.7 100 / 2985.3 -0.2-5.5 4.9
2017-Apr-21 02:30N 69°39' E 018°58'0 0.0
2017-Apr-21 02:00N 69°39' E 018°58'0 0.0
2017-Apr-21 01:30N 69°39' E 018°58'0 0.0
2017-Apr-21 00:59N 69°39' E 018°58'0 0.0
2017-Apr-21 00:29N 69°39' E 018°58'0 0.0
2017-Apr-21 00:00N 69°39' E 018°58'4247.5
2017-Apr-21 00:00N 69°36' E 018°54'4 7.8 060 / 6987.3 1.8-6.3 4.8
2017-Apr-20 23:30N 69°39' E 018°58'0 0.0
2017-Apr-20 23:00N 69°39' E 018°58'0 0.0
2017-Apr-20 22:30N 69°39' E 018°58'0 0.0
2017-Apr-20 22:00N 69°39' E 018°58'0 0.0
2017-Apr-20 21:30N 69°39' E 018°58'0 0.0
2017-Apr-20 21:00N 69°39' E 018°58'43408.2
2017-Apr-20 21:00N 69°36' E 018°54'4 7.7 200 / 6988.7 3.0-5.3 4.7
2017-Apr-20 20:30N 69°39' E 018°58'0 0.0
2017-Apr-20 20:00N 69°39' E 018°58'0 0.0
2017-Apr-20 19:30N 69°39' E 018°58'0 0.0
2017-Apr-20 19:00N 69°39' E 018°58'0 0.0
2017-Apr-20 18:30N 69°39' E 018°58'0 0.0
2017-Apr-20 18:00N 69°39' E 018°58'43402.5
2017-Apr-20 18:00N 69°36' E 018°54'4 7.8 200 / 14990.0 4.4-3.8 4.6
2017-Apr-20 17:30N 69°39' E 018°58'0 0.0
2017-Apr-20 17:00N 69°39' E 018°58'0 0.0
2017-Apr-20 16:30N 69°39' E 018°58'0 0.0
2017-Apr-20 15:59N 69°39' E 018°58'0 0.0
2017-Apr-20 15:30N 69°39' E 018°58'0 0.0
2017-Apr-20 15:00N 69°39' E 018°58'4567.2
2017-Apr-20 15:00N 69°36' E 018°54'4 3.8 220 / 12991.3 4.9-2.5 5.0
2017-Apr-20 14:00N 69°39' E 018°58'0 0.0
2017-Apr-20 13:30N 69°39' E 018°58'0 0.0
2017-Apr-20 13:00N 69°39' E 018°58'0 0.0
2017-Apr-20 12:30N 69°39' E 018°58'0 0.0
2017-Apr-20 12:00N 69°39' E 018°58'4247.5
2017-Apr-20 12:00N 69°36' E 018°54'4 7.7 200 / 14992.2 3.5-0.3 4.9
2017-Apr-20 11:30N 69°39' E 018°58'0 0.0
2017-Apr-20 11:00N 69°39' E 018°58'0 0.0
2017-Apr-20 10:30N 69°39' E 018°58'0 0.0
2017-Apr-20 10:00N 69°39' E 018°58'0 0.0
2017-Apr-20 09:30N 69°39' E 018°58'0 0.0
2017-Apr-20 09:00N 69°39' E 018°58'4247.8
2017-Apr-20 09:00N 69°36' E 018°54'4 7.8 200 / 10993.6 5.0-2.3 4.6
2017-Apr-20 08:30N 69°39' E 018°58'0 0.0
2017-Apr-20 08:00N 69°39' E 018°58'0 0.0
2017-Apr-20 07:30N 69°39' E 018°58'0 0.0
2017-Apr-20 07:00N 69°39' E 018°58'0 0.0
2017-Apr-20 06:30N 69°39' E 018°58'0 0.0
2017-Apr-20 06:00N 69°39' E 018°58'4389.4
2017-Apr-20 06:00N 69°36' E 018°54'4 7.7 220 / 12998.8 3.8-2.0 4.5
2017-Apr-20 05:30N 69°39' E 018°58'0 0.0
2017-Apr-20 05:00N 69°39' E 018°58'0 0.0
2017-Apr-20 04:29N 69°39' E 018°58'0 0.0
2017-Apr-20 04:00N 69°39' E 018°58'0 0.0
2017-Apr-20 03:30N 69°39' E 018°58'0 0.0
2017-Apr-20 03:00N 69°39' E 018°58'4400.9
2017-Apr-20 03:00N 69°36' E 018°54'4 7.8 220 / 121004.6 3.0-2.4 5.0
2017-Apr-20 02:30N 69°39' E 018°58'0 0.0
2017-Apr-20 02:00N 69°39' E 018°58'0 0.0
2017-Apr-20 01:30N 69°39' E 018°58'0 0.0
2017-Apr-20 01:00N 69°39' E 018°58'0 0.0
2017-Apr-20 00:30N 69°39' E 018°58'0 0.0
2017-Apr-20 00:00N 69°39' E 018°58'42726.6
2017-Apr-20 00:00N 69°36' E 018°54'4 7.6 200 / 101009.2 3.2-2.3 4.7
2017-Apr-19 23:30N 69°39' E 018°58'0 0.0
2017-Apr-19 23:00N 69°39' E 018°58'0 0.0
2017-Apr-19 22:29N 69°39' E 018°58'0 0.0
2017-Apr-19 22:00N 69°39' E 018°58'0 0.0
2017-Apr-19 21:30N 69°39' E 018°58'0 0.0
2017-Apr-19 21:00N 69°39' E 018°58'4247.8
2017-Apr-19 21:00N 69°36' E 018°54'4 7.8 220 / 161013.2 2.3-3.2 4.9
2017-Apr-19 20:30N 69°39' E 018°58'0 0.0
2017-Apr-19 20:00N 69°39' E 018°58'0 0.0
2017-Apr-19 19:30N 69°39' E 018°58'0 0.0
2017-Apr-19 19:00N 69°39' E 018°58'0 0.0
2017-Apr-19 18:30N 69°39' E 018°58'0 0.0
2017-Apr-19 18:00N 69°39' E 018°58'4545.3
2017-Apr-19 18:00N 69°36' E 018°54'4 7.8 190 / 121015.8 3.3-3.5 4.5
2017-Apr-19 17:30N 69°39' E 018°58'0 0.0
2017-Apr-19 17:00N 69°39' E 018°58'0 0.0
2017-Apr-19 16:29N 69°39' E 018°58'0 0.0
2017-Apr-19 16:00N 69°39' E 018°58'0 0.0
2017-Apr-19 15:30N 69°39' E 018°58'0 0.0
2017-Apr-19 15:00N 69°39' E 018°58'4973.8
2017-Apr-19 15:00N 69°36' E 018°54'4 7.6 200 / 141019.2 3.3-3.2 4.8
2017-Apr-19 14:30N 69°39' E 018°58'0 0.0
2017-Apr-19 13:30N 69°39' E 018°58'0 0.0
2017-Apr-19 13:00N 69°39' E 018°58'0 0.0
2017-Apr-19 12:30N 69°39' E 018°58'0 0.0
2017-Apr-19 12:00N 69°39' E 018°58'4389.4
2017-Apr-19 12:00N 69°36' E 018°54'4 7.7 200 / 141021.6 1.8-2.0 4.9
2017-Apr-19 11:30N 69°39' E 018°58'0 0.0
2017-Apr-19 11:00N 69°39' E 018°58'0 0.0
2017-Apr-19 10:30N 69°39' E 018°58'0 0.0
2017-Apr-19 10:00N 69°39' E 018°58'0 0.0
2017-Apr-19 09:30N 69°39' E 018°58'0 0.0
2017-Apr-19 09:00N 69°39' E 018°58'4401.0
2017-Apr-19 09:00N 69°36' E 018°54'4 7.8 200 / 101022.7 1.0-2.3 5.1
2017-Apr-19 08:30N 69°39' E 018°58'0 0.0
2017-Apr-19 08:00N 69°39' E 018°58'0 0.0
2017-Apr-19 07:30N 69°39' E 018°58'0 0.0
2017-Apr-19 07:00N 69°39' E 018°58'0 0.0
2017-Apr-19 06:30N 69°39' E 018°58'0 0.0
2017-Apr-19 06:00N 69°39' E 018°58'4908.7
2017-Apr-19 06:00N 69°36' E 018°54'4 7.6 200 / 81023.2 -0.0-2.2 4.7
2017-Apr-19 05:30N 69°39' E 018°58'0 0.8
2017-Apr-19 05:00N 69°39' E 018°59'4 9.1
2017-Apr-19 04:30N 69°35' E 018°52'0 0.7
2017-Apr-19 04:00N 69°35' E 018°53'1 1.6
2017-Apr-19 03:30N 69°35' E 018°51'3 5.4
2017-Apr-19 03:00N 69°33' E 018°44'3363.6
2017-Apr-19 03:00N 69°30' E 018°42'   240 / 161023.7 -0.2-1.9 4.0
Track history (hours):
 
Tides and Currents Weather Stations Pressure Air Temp Water Temp Dewpoint Dewpoint Depression Visibility Wind Speed Wind Dir Waves Ship Positions

Oceanographic research ship RV Helmer Hanssen (Norway)

ex Jan Mayen.

Ship's website: http://uit.no/bfe

Detailed information on ship capabilities available from University of Delaware's Ocean Information Center and ARCUS's ALIAS (Arctic Logistics Information and Support) project.

Last reported at 2017-Apr-29 03:00 UTC. Time now 2017-Apr-29 05:52 UTC.
Position N 67°48' E 010°12'.

Length 64 m; beam 13 m.

Type: Cargo ship. MMSI: 257471500.

Wind from 120 at 17 knots

Barometer 1027.9 mb
Air temperature 4.7 ° C
Dewpoint -4.3 ° C
Water temperature 7.0 ° C

Date/timePositionNaut miles runAvg speedWind from/ knotsBaromVisibWave heightAir tempDewpointWater temp
2017-Apr-29 03:00N 67°48' E 010°12'15 4.9 120 / 171027.9 4.7-4.3 7.0
2017-Apr-29 00:00N 67°54' E 009°36'8 2.5 130 / 161027.737.8 1.0 4.9-1.7 6.7
2017-Apr-28 21:00N 67°48' E 009°48'12 4.0 140 / 121027.537.8 1.0 5.2-2.4 6.7
2017-Apr-28 18:00N 68°00' E 009°48'12 4.1 150 / 81026.7 5.4-2.8 7.8
2017-Apr-28 15:00N 67°48' E 009°42'15 5.0 140 / 101026.037.8 1.0 5.9-3.8 6.9
2017-Apr-28 12:00N 68°00' E 010°06'19 6.3 140 / 81025.537.8 1.0 6.0-2.3 6.9
2017-Apr-28 09:00N 67°54' E 010°54'19 6.4 150 / 61024.737.8 1.0 5.4-3.7 6.1
2017-Apr-28 06:00N 67°48' E 011°42'11 3.6 140 / 81023.3 0.5 5.0-3.5 5.9
2017-Apr-28 03:00N 67°42' E 012°06'723.7 120 / 81021.6 4.0-4.3 5.7
2017-Apr-28 02:42N 67°48' E 012°17'210.8
2017-Apr-28 02:30N 67°48' E 012°23'511.0
2017-Apr-28 02:00N 67°48' E 012°37'611.9
2017-Apr-28 01:30N 67°49' E 012°53'611.8
2017-Apr-28 01:00N 67°51' E 013°07'611.2
2017-Apr-28 00:30N 67°54' E 013°20'611.0
2017-Apr-28 00:00N 67°57' E 013°33'3302.2
2017-Apr-28 00:00N 67°54' E 013°30'815.9 020 / 61020.0 3.3-2.3 4.8
2017-Apr-27 23:30N 67°59' E 013°45'511.0
2017-Apr-27 23:00N 68°02' E 013°58'510.9
2017-Apr-27 22:30N 68°05' E 014°10'510.6
2017-Apr-27 21:59N 68°08' E 014°23'510.4
2017-Apr-27 21:30N 68°12' E 014°32'3 5.0
2017-Apr-27 21:00N 68°14' E 014°33'2511.6
2017-Apr-27 21:00N 68°12' E 014°30'2 4.7 340 / 61019.0 1.8-7.8 4.8
2017-Apr-27 20:30N 68°14' E 014°33'0 0.0
2017-Apr-27 20:00N 68°14' E 014°33'0 0.0
2017-Apr-27 19:30N 68°14' E 014°33'0 0.0
2017-Apr-27 19:00N 68°14' E 014°33'0 0.0
2017-Apr-27 18:30N 68°14' E 014°33'0 0.0
2017-Apr-27 18:00N 68°14' E 014°33'2513.1
2017-Apr-27 18:00N 68°12' E 014°30'2 4.5 350 / 41017.2 3.7-8.5 4.9
2017-Apr-27 17:29N 68°14' E 014°33'0 0.0
2017-Apr-27 17:00N 68°14' E 014°33'0 0.0
2017-Apr-27 16:30N 68°14' E 014°33'0 0.0
2017-Apr-27 15:59N 68°14' E 014°33'0 0.0
2017-Apr-27 15:30N 68°14' E 014°33'0 0.0
2017-Apr-27 15:00N 68°14' E 014°33'2511.6
2017-Apr-27 15:00N 68°12' E 014°30'2 2.3 340 / 41015.3 6.0-9.2 4.9
2017-Apr-27 14:00N 68°14' E 014°33'0 0.0
2017-Apr-27 13:30N 68°14' E 014°33'0 0.0
2017-Apr-27 12:59N 68°14' E 014°33'0 0.0
2017-Apr-27 12:30N 68°14' E 014°33'0 0.0
2017-Apr-27 12:00N 68°14' E 014°33'2148.8
2017-Apr-27 12:00N 68°12' E 014°30'2 4.7 020 / 41013.3 5.2-8.1 5.1
2017-Apr-27 11:30N 68°14' E 014°33'0 0.0
2017-Apr-27 11:00N 68°14' E 014°33'0 0.0
2017-Apr-27 10:30N 68°14' E 014°33'0 0.0
2017-Apr-27 10:00N 68°14' E 014°33'0 0.0
2017-Apr-27 09:29N 68°14' E 014°33'2 4.6
2017-Apr-27 09:00N 68°12' E 014°30'21368.1 360 / 81011.7 3.8-7.6 4.7
2017-Apr-27 08:59N 68°14' E 014°33'0 0.0
2017-Apr-27 08:31N 68°14' E 014°33'0 0.1
2017-Apr-27 08:00N 68°14' E 014°33'2 3.5
2017-Apr-27 07:30N 68°12' E 014°33'1 2.4
2017-Apr-27 07:00N 68°11' E 014°34'2 4.1
2017-Apr-27 06:30N 68°09' E 014°31'3 6.2
2017-Apr-27 06:00N 68°08' E 014°24'21179.4
2017-Apr-27 06:00N 68°06' E 014°24'1 2.3 040 / 121009.8 0.5 2.2-6.6 4.0
2017-Apr-27 05:30N 68°06' E 014°21'2 4.4
2017-Apr-27 05:00N 68°04' E 014°24'2 3.8
2017-Apr-27 04:30N 68°03' E 014°26'3 6.4
2017-Apr-27 04:00N 67°60' E 014°30'0 0.7
2017-Apr-27 03:29N 67°60' E 014°31'3 5.7
2017-Apr-27 03:00N 67°57' E 014°34'3772.6
2017-Apr-27 03:00N 67°54' E 014°30'3 6.1 050 / 161007.7 0.5 2.2-4.0 4.6
2017-Apr-27 02:29N 67°55' E 014°38'0 0.9
2017-Apr-27 02:00N 67°55' E 014°38'0 0.4
2017-Apr-27 01:30N 67°54' E 014°38'1 1.7
2017-Apr-27 01:00N 67°54' E 014°36'0 0.5
2017-Apr-27 00:30N 67°54' E 014°37'0 0.5
2017-Apr-27 00:00N 67°54' E 014°38'1569.0
2017-Apr-27 00:00N 67°54' E 014°36'1 1.7 040 / 101006.5 2.7-3.3 5.1
2017-Apr-26 23:29N 67°54' E 014°38'0 0.4
2017-Apr-26 23:00N 67°54' E 014°38'0 0.3
2017-Apr-26 22:30N 67°54' E 014°39'0 0.2
2017-Apr-26 22:00N 67°55' E 014°39'2 4.5
2017-Apr-26 21:30N 67°56' E 014°43'4 7.6
2017-Apr-26 21:00N 67°59' E 014°51'5375.1
2017-Apr-26 21:00N 67°54' E 014°48'816.6 030 / 121006.2 3.2-4.3 4.8
2017-Apr-26 20:30N 68°01' E 014°59'4 7.7
2017-Apr-26 20:00N 68°04' E 015°06'4 7.6
2017-Apr-26 19:30N 68°06' E 015°14'4 7.6
2017-Apr-26 19:00N 68°09' E 015°22'3 5.4
2017-Apr-26 18:30N 68°10' E 015°28'4 7.4
2017-Apr-26 18:00N 68°12' E 015°36'090.2
2017-Apr-26 18:00N 68°12' E 015°36'4 7.9 020 / 101006.0 3.7-5.3 4.2
2017-Apr-26 17:30N 68°14' E 015°45'4 7.4
2017-Apr-26 17:00N 68°16' E 015°54'4 7.2
2017-Apr-26 16:30N 68°16' E 016°03'4 7.2
2017-Apr-26 16:00N 68°13' E 016°09'4 8.6
2017-Apr-26 15:30N 68°09' E 016°11'1 1.7
2017-Apr-26 15:00N 68°08' E 016°11'31776.4
2017-Apr-26 15:00N 68°06' E 016°06'2 4.1 350 / 101005.6 4.0-5.0 4.6
2017-Apr-26 14:29N 68°06' E 016°11'0 0.1
2017-Apr-26 13:30N 68°06' E 016°12'1 1.8
2017-Apr-26 13:00N 68°07' E 016°11'510.5
2017-Apr-26 12:30N 68°12' E 016°10'510.1
2017-Apr-26 12:00N 68°16' E 016°02'4326.6
2017-Apr-26 12:00N 68°12' E 016°00'510.7 040 / 101005.7 3.7-6.8 4.5
2017-Apr-26 11:30N 68°15' E 015°48'510.3
2017-Apr-26 11:00N 68°13' E 015°36'510.3
2017-Apr-26 10:30N 68°12' E 015°22'510.4
2017-Apr-26 10:00N 68°10' E 015°09'510.9
2017-Apr-26 09:30N 68°09' E 014°55'510.7
2017-Apr-26 09:00N 68°07' E 014°41'2317.3
2017-Apr-26 09:00N 68°06' E 014°36'3 6.4 060 / 141006.3 2.2-5.5 4.1
2017-Apr-26 08:30N 68°06' E 014°28'1 2.8
2017-Apr-26 08:00N 68°06' E 014°24'2 3.6
2017-Apr-26 07:30N 68°06' E 014°28'1 2.9
2017-Apr-26 06:59N 68°07' E 014°31'0 0.5
2017-Apr-26 06:30N 68°07' E 014°31'3 5.7
2017-Apr-26 06:00N 68°06' E 014°24'65340.6
2017-Apr-26 06:00N 68°00' E 014°24'611.7 060 / 141007.1 0.5 1.8-5.3 3.9
2017-Apr-26 05:30N 68°06' E 014°22'0 0.1
2017-Apr-26 05:00N 68°06' E 014°22'4 7.7
2017-Apr-26 04:30N 68°07' E 014°12'3 5.1
2017-Apr-26 04:00N 68°09' E 014°08'0 0.3
2017-Apr-26 03:30N 68°09' E 014°08'0 0.2
2017-Apr-26 03:00N 68°09' E 014°08'3457.8
2017-Apr-26 03:00N 68°06' E 014°06'3 6.9 030 / 21007.5 1.5-5.1 4.2
2017-Apr-26 02:30N 68°09' E 014°08'0 0.2
2017-Apr-26 02:00N 68°09' E 014°08'0 0.2
2017-Apr-26 01:30N 68°09' E 014°08'0 0.3
2017-Apr-26 00:59N 68°09' E 014°08'0 0.3
2017-Apr-26 00:29N 68°09' E 014°08'0 1.0
2017-Apr-26 00:00N 68°10' E 014°08'4259.8
2017-Apr-26 00:00N 68°06' E 014°06'4 7.9 030 / 41008.1 2.2-6.3 4.4
2017-Apr-25 23:30N 68°10' E 014°08'0 0.2
2017-Apr-25 23:00N 68°10' E 014°08'0 0.1
2017-Apr-25 22:30N 68°10' E 014°08'0 0.1
2017-Apr-25 22:00N 68°10' E 014°08'0 0.1
2017-Apr-25 21:30N 68°10' E 014°08'0 0.1
2017-Apr-25 21:00N 68°09' E 014°08'42129.2
2017-Apr-25 21:00N 68°06' E 014°06'4 7.1 360 / 81008.8 2.7-6.0 4.4
2017-Apr-25 20:30N 68°09' E 014°08'0 0.6
2017-Apr-25 19:59N 68°09' E 014°09'0 0.4
2017-Apr-25 19:30N 68°09' E 014°08'0 0.5
2017-Apr-25 19:00N 68°09' E 014°08'0 0.3
2017-Apr-25 18:30N 68°09' E 014°07'0 0.2
2017-Apr-25 18:00N 68°09' E 014°08'3345.1
2017-Apr-25 18:00N 68°06' E 014°06'4 7.3 020 / 81009.3 4.7-6.0 4.7
2017-Apr-25 17:30N 68°10' E 014°07'1 1.3
2017-Apr-25 17:00N 68°09' E 014°08'0 0.6
2017-Apr-25 16:30N 68°09' E 014°08'0 0.4
2017-Apr-25 16:00N 68°09' E 014°08'0 0.0
2017-Apr-25 15:30N 68°09' E 014°08'0 0.2
2017-Apr-25 15:00N 68°09' E 014°08'3352.8
2017-Apr-25 15:00N 68°06' E 014°06'4 7.2 100 / 61009.6 3.5-6.0 4.6
2017-Apr-25 14:30N 68°09' E 014°08'1 1.4
2017-Apr-25 13:30N 68°11' E 014°08'2 3.0
2017-Apr-25 13:00N 68°09' E 014°08'0 0.0
2017-Apr-25 12:30N 68°09' E 014°08'0 0.6
2017-Apr-25 12:00N 68°10' E 014°08'42198.2
2017-Apr-25 12:00N 68°06' E 014°06'4 8.0 100 / 81009.7 2.7-4.5 4.4
2017-Apr-25 11:30N 68°10' E 014°08'0 0.1
2017-Apr-25 10:59N 68°10' E 014°08'0 0.4
2017-Apr-25 10:30N 68°10' E 014°08'0 0.3
2017-Apr-25 10:00N 68°10' E 014°08'0 0.1
2017-Apr-25 09:30N 68°10' E 014°08'0 0.1
2017-Apr-25 09:00N 68°09' E 014°08'0 0.1
2017-Apr-25 08:30N 68°09' E 014°08'0 0.1
2017-Apr-25 08:00N 68°09' E 014°08'2 3.4
2017-Apr-25 07:31N 68°11' E 014°09'2 3.1
2017-Apr-25 07:00N 68°10' E 014°09'0 0.8
2017-Apr-25 06:30N 68°09' E 014°08'0 0.2
2017-Apr-25 06:00N 68°09' E 014°08'42562.9
2017-Apr-25 06:00N 68°06' E 014°06'4 7.3 360 / 41009.7 0.5 1.8-4.8 4.3
2017-Apr-25 05:30N 68°09' E 014°09'0 0.5
2017-Apr-25 05:00N 68°10' E 014°08'2 3.4
2017-Apr-25 04:30N 68°08' E 014°07'5 9.9
2017-Apr-25 04:00N 68°10' E 014°19'611.0
2017-Apr-25 03:30N 68°12' E 014°33'4 7.6
2017-Apr-25 03:00N 68°14' E 014°42'0 0.2
2017-Apr-25 02:30N 68°14' E 014°42'0 0.4
2017-Apr-25 02:00N 68°14' E 014°42'0 0.6
2017-Apr-25 01:30N 68°14' E 014°42'0 0.4
2017-Apr-25 01:00N 68°14' E 014°42'0 0.9
2017-Apr-25 00:29N 68°14' E 014°41'0 0.1
2017-Apr-25 00:00N 68°14' E 014°41'0 0.6
2017-Apr-24 23:30N 68°14' E 014°42'0 0.5
2017-Apr-24 23:00N 68°14' E 014°42'1 1.5
2017-Apr-24 22:30N 68°14' E 014°41'0 0.6
2017-Apr-24 22:00N 68°14' E 014°41'0 0.6
2017-Apr-24 21:30N 68°14' E 014°42'0 0.5
2017-Apr-24 21:00N 68°14' E 014°42'0 0.9
2017-Apr-24 20:30N 68°14' E 014°41'0 0.3
2017-Apr-24 20:00N 68°14' E 014°41'0 0.5
2017-Apr-24 19:30N 68°14' E 014°42'0 0.4
2017-Apr-24 19:00N 68°15' E 014°42'0 0.6
2017-Apr-24 18:30N 68°14' E 014°42'0 0.3
2017-Apr-24 18:00N 68°14' E 014°42'0 0.4
2017-Apr-24 17:30N 68°14' E 014°42'0 0.2
2017-Apr-24 17:00N 68°14' E 014°42'0 0.2
2017-Apr-24 16:30N 68°14' E 014°42'0 0.3
2017-Apr-24 16:00N 68°14' E 014°42'1 1.7
2017-Apr-24 15:30N 68°14' E 014°40'1 1.7
2017-Apr-24 15:00N 68°14' E 014°42'0 0.4
2017-Apr-24 14:30N 68°14' E 014°42'9 9.2
2017-Apr-24 13:30N 68°08' E 014°25'510.5
2017-Apr-24 13:00N 68°04' E 014°14'510.3
2017-Apr-24 12:29N 68°01' E 014°04'510.2
2017-Apr-24 12:00N 67°58' E 013°54'510.6
2017-Apr-24 11:29N 67°54' E 013°43'4 7.7
2017-Apr-24 11:00N 67°52' E 013°35'4 8.7
2017-Apr-24 10:30N 67°56' E 013°29'3 6.3
2017-Apr-24 10:00N 67°58' E 013°25'1 2.0
2017-Apr-24 09:29N 67°59' E 013°25'511.0
2017-Apr-24 09:00N 67°55' E 013°33'2369.2
2017-Apr-24 09:00N 67°54' E 013°30'611.4 070 / 141005.6 2.6-4.3 4.7
2017-Apr-24 08:30N 67°50' E 013°41'2 4.6
2017-Apr-24 08:00N 67°49' E 013°45'0 0.3
2017-Apr-24 07:30N 67°48' E 013°45'0 0.3
2017-Apr-24 07:00N 67°48' E 013°46'0 0.4
2017-Apr-24 06:30N 67°48' E 013°46'0 0.8
2017-Apr-24 06:00N 67°48' E 013°47'2123.9
2017-Apr-24 06:00N 67°48' E 013°42'715.2 100 / 81004.7 0.5 2.7-5.3 4.8
2017-Apr-24 05:30N 67°52' E 013°59'611.1
2017-Apr-24 05:00N 67°55' E 014°11'611.1
2017-Apr-24 04:30N 67°58' E 014°23'3 6.1
2017-Apr-24 03:59N 67°60' E 014°30'0 0.4
2017-Apr-24 03:30N 67°60' E 014°30'2 3.1
2017-Apr-24 03:00N 68°01' E 014°34'21207.6
2017-Apr-24 03:00N 68°00' E 014°30'714.7 070 / 121003.8 1.6-4.8 4.1
2017-Apr-24 02:29N 68°03' E 014°48'3 7.0
2017-Apr-24 02:00N 68°04' E 014°57'1 2.7
2017-Apr-24 01:30N 68°05' E 014°60'611.3
2017-Apr-24 01:00N 68°08' E 015°13'611.2
2017-Apr-24 00:30N 68°11' E 015°25'611.3
2017-Apr-24 00:00N 68°14' E 015°38'2223.1
2017-Apr-24 00:00N 68°12' E 015°36'612.4 060 / 161004.1 1.1-4.8 3.8
2017-Apr-23 23:30N 68°18' E 015°42'2 4.8
2017-Apr-23 23:00N 68°16' E 015°46'0 0.7
2017-Apr-23 22:30N 68°16' E 015°46'0 0.7
2017-Apr-23 22:00N 68°16' E 015°47'0 0.8
2017-Apr-23 21:30N 68°16' E 015°46'0 0.6
2017-Apr-23 21:00N 68°16' E 015°47'43214.1
2017-Apr-23 21:00N 68°12' E 015°42'5 9.7 060 / 161003.3 2.1-4.1 3.8
2017-Apr-23 20:30N 68°16' E 015°48'2 4.2
2017-Apr-23 20:00N 68°15' E 015°52'3 5.4
2017-Apr-23 19:30N 68°17' E 015°55'4 8.2
2017-Apr-23 19:00N 68°21' E 015°59'1 2.9
2017-Apr-23 18:30N 68°22' E 016°03'4 8.8
2017-Apr-23 18:00N 68°23' E 016°14'51295.7
2017-Apr-23 18:00N 68°18' E 016°12'510.3 060 / 161003.2 2.2-3.8 4.1
2017-Apr-23 17:30N 68°23' E 016°14'0 0.1
2017-Apr-23 17:00N 68°23' E 016°14'0 0.5
2017-Apr-23 16:30N 68°23' E 016°15'0 0.3
2017-Apr-23 16:00N 68°23' E 016°15'0 0.7
2017-Apr-23 15:30N 68°23' E 016°14'4 8.9
2017-Apr-23 15:00N 68°21' E 016°04'3500.2
2017-Apr-23 15:00N 68°18' E 016°00'0 0.1 080 / 211001.7 3.3-5.3 3.9
2017-Apr-23 13:59N 68°18' E 015°60'0 0.7
2017-Apr-23 13:30N 68°18' E 015°59'0 0.6
2017-Apr-23 13:00N 68°18' E 015°60'0 0.5
2017-Apr-23 12:30N 68°18' E 016°00'3 6.4
2017-Apr-23 12:00N 68°16' E 016°06'4957.0
2017-Apr-23 12:00N 68°12' E 016°06'3 7.1 190 / 21000.7 4.4-8.0 3.9
2017-Apr-23 11:30N 68°15' E 016°06'3 5.4
2017-Apr-23 11:00N 68°13' E 016°09'2 3.1
2017-Apr-23 10:30N 68°11' E 016°11'510.2
2017-Apr-23 10:00N 68°06' E 016°11'0 0.6
2017-Apr-23 09:30N 68°06' E 016°11'3 6.5
2017-Apr-23 09:00N 68°03' E 016°06'4602.4
2017-Apr-23 09:00N 68°00' E 016°00'4 8.7 130 / 12999.2 3.0-7.1 3.7
2017-Apr-23 08:30N 68°02' E 016°11'1 2.3
2017-Apr-23 08:00N 68°01' E 016°12'2 3.7
2017-Apr-23 07:29N 67°59' E 016°14'1 2.1
2017-Apr-23 07:00N 67°58' E 016°15'0 0.5
2017-Apr-23 06:30N 67°58' E 016°15'0 0.6
2017-Apr-23 06:00N 67°58' E 016°15'4598.4
2017-Apr-23 06:00N 67°54' E 016°12'4 8.0 120 / 25997.7 5.4 0.5 2.1-5.8 4.1
2017-Apr-23 05:30N 67°58' E 016°15'1 1.4
2017-Apr-23 04:59N 67°58' E 016°15'0 0.9
2017-Apr-23 04:30N 67°58' E 016°15'0 0.9
2017-Apr-23 04:00N 67°58' E 016°15'0 0.1
2017-Apr-23 03:30N 67°58' E 016°15'1 1.5
2017-Apr-23 03:00N 67°58' E 016°14'43049.1
2017-Apr-23 03:00N 67°54' E 016°12'4 8.5 120 / 23996.0 2.1-5.0 4.2
2017-Apr-23 02:29N 67°58' E 016°15'0 0.5
2017-Apr-23 02:00N 67°58' E 016°15'0 0.3
2017-Apr-23 01:30N 67°58' E 016°15'0 0.4
2017-Apr-23 01:00N 67°58' E 016°15'1 1.2
2017-Apr-23 00:30N 67°58' E 016°16'0 0.2
2017-Apr-23 00:00N 67°58' E 016°15'4341.3
2017-Apr-23 00:00N 67°54' E 016°12'4 8.2 200 / 8995.6 1.1-2.9 4.1
2017-Apr-22 23:30N 67°58' E 016°15'0 0.3
2017-Apr-22 23:00N 67°58' E 016°15'0 0.5
2017-Apr-22 22:30N 67°58' E 016°15'0 0.4
2017-Apr-22 22:00N 67°58' E 016°15'0 0.2
2017-Apr-22 21:30N 67°58' E 016°15'0 0.6
2017-Apr-22 21:00N 67°58' E 016°15'4956.6
2017-Apr-22 21:00N 67°54' E 016°12'4 8.8 210 / 19994.7 0.5-1.4 4.1
2017-Apr-22 20:30N 67°58' E 016°15'0 0.3
2017-Apr-22 19:59N 67°58' E 016°15'0 0.6
2017-Apr-22 19:30N 67°58' E 016°15'0 0.3
2017-Apr-22 19:00N 67°58' E 016°15'0 0.3
2017-Apr-22 18:30N 67°57' E 016°15'0 0.4
2017-Apr-22 18:00N 67°58' E 016°15'4571.6
2017-Apr-22 18:00N 67°54' E 016°12'4 8.3 170 / 16994.2 3.8-5.5 4.2
2017-Apr-22 17:29N 67°58' E 016°15'0 0.2
2017-Apr-22 17:00N 67°58' E 016°15'0 0.4
2017-Apr-22 16:30N 67°58' E 016°15'0 0.6
2017-Apr-22 16:00N 67°57' E 016°15'1 1.0
2017-Apr-22 15:29N 67°57' E 016°15'0 0.9
2017-Apr-22 15:00N 67°57' E 016°15'4514.3
2017-Apr-22 15:00N 67°54' E 016°12'4 8.0 190 / 25994.6 2.8-4.6 4.4
2017-Apr-22 14:30N 67°58' E 016°15'0 0.3
2017-Apr-22 13:30N 67°57' E 016°15'0 0.4
2017-Apr-22 12:59N 67°58' E 016°15'0 1.0
2017-Apr-22 12:30N 67°58' E 016°15'0 0.2
2017-Apr-22 12:00N 67°58' E 016°15'4324.6
2017-Apr-22 12:00N 67°54' E 016°12'4 8.0 180 / 19997.1 2.2-5.0 4.2
2017-Apr-22 11:30N 67°58' E 016°15'0 0.4
2017-Apr-22 11:00N 67°58' E 016°16'0 0.4
2017-Apr-22 10:30N 67°58' E 016°15'0 0.3
2017-Apr-22 10:00N 67°58' E 016°15'0 0.3
2017-Apr-22 09:30N 67°58' E 016°15'0 0.8
2017-Apr-22 09:00N 67°58' E 016°15'4274.8
2017-Apr-22 09:00N 67°54' E 016°12'4 7.3 140 / 4999.2 1.5-4.3 4.2
2017-Apr-22 08:29N 67°58' E 016°15'0 0.5
2017-Apr-22 08:00N 67°58' E 016°14'1 2.0
2017-Apr-22 07:30N 67°59' E 016°14'1 1.1
2017-Apr-22 07:00N 67°58' E 016°14'1 1.7
2017-Apr-22 06:29N 67°57' E 016°15'1 1.3
2017-Apr-22 06:00N 67°58' E 016°15'42955.1
2017-Apr-22 06:00N 67°54' E 016°12'3 7.2 270 / 17999.229.7 0.5 1.1-3.7 4.3
2017-Apr-22 05:30N 67°57' E 016°15'0 0.8
2017-Apr-22 05:00N 67°58' E 016°15'2 3.4
2017-Apr-22 04:29N 67°56' E 016°14'2 4.3
2017-Apr-22 04:00N 67°54' E 016°14'6 6.0
2017-Apr-22 03:00N 67°48' E 016°18'4 4.0 290 / 17998.6 2.2 0.5 1.6-5.1 4.5
2017-Apr-22 01:58N 67°49' E 016°28'0 0.5
2017-Apr-22 01:27N 67°49' E 016°28'0 0.1
2017-Apr-22 00:42N 67°50' E 016°28'0 1.9
2017-Apr-22 00:28N 67°49' E 016°29'2 4.7
2017-Apr-22 00:00N 67°48' E 016°24'247.2 300 / 19996.7 2.2 0.5 1.5-1.4 4.9
2017-Apr-21 23:57N 67°49' E 016°28'0 0.1
2017-Apr-21 23:06N 67°49' E 016°28'0 0.6
2017-Apr-21 23:00N 67°49' E 016°28'6 5.4
2017-Apr-21 21:51N 67°54' E 016°16'2 5.3
2017-Apr-21 21:29N 67°55' E 016°14'2 3.1
2017-Apr-21 21:00N 67°54' E 016°12'53136.2 320 / 10994.5 1.6-1.0 4.1
2017-Apr-21 20:59N 67°59' E 016°13'4 8.1
2017-Apr-21 20:30N 68°03' E 016°08'4 8.0
2017-Apr-21 20:00N 68°07' E 016°10'4 8.8
2017-Apr-21 19:30N 68°11' E 016°11'5 9.9
2017-Apr-21 18:59N 68°16' E 016°05'510.1
2017-Apr-21 18:30N 68°20' E 015°60'611.0
2017-Apr-21 18:00N 68°26' E 016°03'21724.0
2017-Apr-21 18:00N 68°24' E 016°00'815.8 010 / 17991.7 4.4-2.3 3.8
2017-Apr-21 17:30N 68°31' E 016°10'510.9
2017-Apr-21 17:00N 68°34' E 016°22'5 9.2
2017-Apr-21 16:30N 68°36' E 016°33'611.7
2017-Apr-21 16:00N 68°41' E 016°40'611.6
2017-Apr-21 15:30N 68°46' E 016°49'611.5
2017-Apr-21 15:00N 68°51' E 016°57'611.5
2017-Apr-21 14:29N 68°56' E 017°06'1111.4
2017-Apr-21 13:30N 69°05' E 017°25'611.6
2017-Apr-21 13:00N 69°08' E 017°40'611.6
2017-Apr-21 12:30N 69°10' E 017°54'4 7.7
2017-Apr-21 12:00N 69°14' E 017°57'2130.6
2017-Apr-21 12:00N 69°12' E 017°54'714.3 010 / 14986.6 4.7-8.4 3.7
2017-Apr-21 11:30N 69°19' E 017°58'5 9.0
2017-Apr-21 11:00N 69°23' E 018°05'611.1
2017-Apr-21 10:30N 69°28' E 018°08'611.6
2017-Apr-21 10:00N 69°31' E 018°22'611.8
2017-Apr-21 09:30N 69°33' E 018°38'611.9
2017-Apr-21 09:00N 69°36' E 018°53'2970.6
2017-Apr-21 09:00N 69°36' E 018°48'510.0 190 985.3 3.6-7.5 3.8
2017-Apr-21 08:30N 69°39' E 018°58'0 0.2
2017-Apr-21 08:00N 69°39' E 018°58'0 0.0
2017-Apr-21 07:30N 69°39' E 018°58'0 0.0
2017-Apr-21 07:00N 69°39' E 018°58'0 0.0
2017-Apr-21 06:30N 69°39' E 018°58'0 0.0
2017-Apr-21 06:00N 69°39' E 018°58'4247.8
2017-Apr-21 06:00N 69°36' E 018°54'4 7.7 030 / 2984.5 3.6-6.3 4.8
2017-Apr-21 05:30N 69°39' E 018°58'0 0.0
2017-Apr-21 05:00N 69°39' E 018°58'0 0.0
2017-Apr-21 04:29N 69°39' E 018°58'0 0.0
2017-Apr-21 03:59N 69°39' E 018°58'0 0.0
2017-Apr-21 03:29N 69°39' E 018°58'0 0.0
2017-Apr-21 03:00N 69°39' E 018°58'4389.4
2017-Apr-21 03:00N 69°36' E 018°54'4 7.7 100 / 2985.3 -0.2-5.5 4.9
2017-Apr-21 02:30N 69°39' E 018°58'0 0.0
2017-Apr-21 02:00N 69°39' E 018°58'0 0.0
2017-Apr-21 01:30N 69°39' E 018°58'0 0.0
2017-Apr-21 00:59N 69°39' E 018°58'0 0.0
2017-Apr-21 00:29N 69°39' E 018°58'0 0.0
2017-Apr-21 00:00N 69°39' E 018°58'4247.5
2017-Apr-21 00:00N 69°36' E 018°54'4 7.8 060 / 6987.3 1.8-6.3 4.8
2017-Apr-20 23:30N 69°39' E 018°58'0 0.0
2017-Apr-20 23:00N 69°39' E 018°58'0 0.0
2017-Apr-20 22:30N 69°39' E 018°58'0 0.0
2017-Apr-20 22:00N 69°39' E 018°58'0 0.0
2017-Apr-20 21:30N 69°39' E 018°58'0 0.0
2017-Apr-20 21:00N 69°39' E 018°58'43408.2
2017-Apr-20 21:00N 69°36' E 018°54'4 7.7 200 / 6988.7 3.0-5.3 4.7
2017-Apr-20 20:30N 69°39' E 018°58'0 0.0
2017-Apr-20 20:00N 69°39' E 018°58'0 0.0
2017-Apr-20 19:30N 69°39' E 018°58'0 0.0
2017-Apr-20 19:00N 69°39' E 018°58'0 0.0
2017-Apr-20 18:30N 69°39' E 018°58'0 0.0
2017-Apr-20 18:00N 69°39' E 018°58'43402.5
2017-Apr-20 18:00N 69°36' E 018°54'4 7.8 200 / 14990.0 4.4-3.8 4.6
2017-Apr-20 17:30N 69°39' E 018°58'0 0.0
2017-Apr-20 17:00N 69°39' E 018°58'0 0.0
2017-Apr-20 16:30N 69°39' E 018°58'0 0.0
2017-Apr-20 15:59N 69°39' E 018°58'0 0.0
2017-Apr-20 15:30N 69°39' E 018°58'0 0.0
2017-Apr-20 15:00N 69°39' E 018°58'4567.2
2017-Apr-20 15:00N 69°36' E 018°54'4 3.8 220 / 12991.3 4.9-2.5 5.0
2017-Apr-20 14:00N 69°39' E 018°58'0 0.0
2017-Apr-20 13:30N 69°39' E 018°58'0 0.0
2017-Apr-20 13:00N 69°39' E 018°58'0 0.0
2017-Apr-20 12:30N 69°39' E 018°58'0 0.0
2017-Apr-20 12:00N 69°39' E 018°58'4247.5
2017-Apr-20 12:00N 69°36' E 018°54'4 7.7 200 / 14992.2 3.5-0.3 4.9
2017-Apr-20 11:30N 69°39' E 018°58'0 0.0
2017-Apr-20 11:00N 69°39' E 018°58'0 0.0
2017-Apr-20 10:30N 69°39' E 018°58'0 0.0
2017-Apr-20 10:00N 69°39' E 018°58'0 0.0
2017-Apr-20 09:30N 69°39' E 018°58'0 0.0
2017-Apr-20 09:00N 69°39' E 018°58'4247.8
2017-Apr-20 09:00N 69°36' E 018°54'4 7.8 200 / 10993.6 5.0-2.3 4.6
2017-Apr-20 08:30N 69°39' E 018°58'0 0.0
2017-Apr-20 08:00N 69°39' E 018°58'0 0.0
2017-Apr-20 07:30N 69°39' E 018°58'0 0.0
2017-Apr-20 07:00N 69°39' E 018°58'0 0.0
2017-Apr-20 06:30N 69°39' E 018°58'0 0.0
2017-Apr-20 06:00N 69°39' E 018°58'4389.4
2017-Apr-20 06:00N 69°36' E 018°54'4 7.7 220 / 12998.8 3.8-2.0 4.5
2017-Apr-20 05:30N 69°39' E 018°58'0 0.0
2017-Apr-20 05:00N 69°39' E 018°58'0 0.0
2017-Apr-20 04:29N 69°39' E 018°58'0 0.0
2017-Apr-20 04:00N 69°39' E 018°58'0 0.0
2017-Apr-20 03:30N 69°39' E 018°58'0 0.0
2017-Apr-20 03:00N 69°39' E 018°58'4400.9
2017-Apr-20 03:00N 69°36' E 018°54'4 7.8 220 / 121004.6 3.0-2.4 5.0
2017-Apr-20 02:30N 69°39' E 018°58'0 0.0
2017-Apr-20 02:00N 69°39' E 018°58'0 0.0
2017-Apr-20 01:30N 69°39' E 018°58'0 0.0
2017-Apr-20 01:00N 69°39' E 018°58'0 0.0
2017-Apr-20 00:30N 69°39' E 018°58'0 0.0
2017-Apr-20 00:00N 69°39' E 018°58'42726.6
2017-Apr-20 00:00N 69°36' E 018°54'4 7.6 200 / 101009.2 3.2-2.3 4.7
2017-Apr-19 23:30N 69°39' E 018°58'0 0.0
2017-Apr-19 23:00N 69°39' E 018°58'0 0.0
2017-Apr-19 22:29N 69°39' E 018°58'0 0.0
2017-Apr-19 22:00N 69°39' E 018°58'0 0.0
2017-Apr-19 21:30N 69°39' E 018°58'0 0.0
2017-Apr-19 21:00N 69°39' E 018°58'4247.8
2017-Apr-19 21:00N 69°36' E 018°54'4 7.8 220 / 161013.2 2.3-3.2 4.9
2017-Apr-19 20:30N 69°39' E 018°58'0 0.0
2017-Apr-19 20:00N 69°39' E 018°58'0 0.0
2017-Apr-19 19:30N 69°39' E 018°58'0 0.0
2017-Apr-19 19:00N 69°39' E 018°58'0 0.0
2017-Apr-19 18:30N 69°39' E 018°58'0 0.0
2017-Apr-19 18:00N 69°39' E 018°58'4545.3
2017-Apr-19 18:00N 69°36' E 018°54'4 7.8 190 / 121015.8 3.3-3.5 4.5
2017-Apr-19 17:30N 69°39' E 018°58'0 0.0
2017-Apr-19 17:00N 69°39' E 018°58'0 0.0
2017-Apr-19 16:29N 69°39' E 018°58'0 0.0
2017-Apr-19 16:00N 69°39' E 018°58'0 0.0
2017-Apr-19 15:30N 69°39' E 018°58'0 0.0
2017-Apr-19 15:00N 69°39' E 018°58'4973.8
2017-Apr-19 15:00N 69°36' E 018°54'4 7.6 200 / 141019.2 3.3-3.2 4.8
2017-Apr-19 14:30N 69°39' E 018°58'0 0.0
2017-Apr-19 13:30N 69°39' E 018°58'0 0.0
2017-Apr-19 13:00N 69°39' E 018°58'0 0.0
2017-Apr-19 12:30N 69°39' E 018°58'0 0.0
2017-Apr-19 12:00N 69°39' E 018°58'4389.4
2017-Apr-19 12:00N 69°36' E 018°54'4 7.7 200 / 141021.6 1.8-2.0 4.9
2017-Apr-19 11:30N 69°39' E 018°58'0 0.0
2017-Apr-19 11:00N 69°39' E 018°58'0 0.0
2017-Apr-19 10:30N 69°39' E 018°58'0 0.0
2017-Apr-19 10:00N 69°39' E 018°58'0 0.0
2017-Apr-19 09:30N 69°39' E 018°58'0 0.0
2017-Apr-19 09:00N 69°39' E 018°58'4401.0
2017-Apr-19 09:00N 69°36' E 018°54'4 7.8 200 / 101022.7 1.0-2.3 5.1
2017-Apr-19 08:30N 69°39' E 018°58'0 0.0
2017-Apr-19 08:00N 69°39' E 018°58'0 0.0
2017-Apr-19 07:30N 69°39' E 018°58'0 0.0
2017-Apr-19 07:00N 69°39' E 018°58'0 0.0
2017-Apr-19 06:30N 69°39' E 018°58'0 0.0
2017-Apr-19 06:00N 69°39' E 018°58'4908.7
2017-Apr-19 06:00N 69°36' E 018°54'4 7.6 200 / 81023.2 -0.0-2.2 4.7
2017-Apr-19 05:30N 69°39' E 018°58'0 0.8
2017-Apr-19 05:00N 69°39' E 018°59'4 9.1
2017-Apr-19 04:30N 69°35' E 018°52'0 0.7
2017-Apr-19 04:00N 69°35' E 018°53'1 1.6
2017-Apr-19 03:30N 69°35' E 018°51'3 5.4
2017-Apr-19 03:00N 69°33' E 018°44'3363.6
2017-Apr-19 03:00N 69°30' E 018°42'   240 / 161023.7 -0.2-1.9 4.0

Dump ship's entire track history